createdAt,value
2023-04-06T04:55:40.810Z,60.20
2023-04-06T04:58:44.661Z,60.26
2023-04-06T05:01:55.017Z,60.25
2023-04-06T05:04:58.833Z,59.97
2023-04-06T05:08:01.419Z,59.79
2023-04-06T05:11:05.492Z,59.77
2023-04-06T05:14:08.968Z,59.76
2023-04-06T05:17:11.615Z,59.82
2023-04-06T05:20:14.009Z,59.44
2023-04-06T05:23:18.905Z,59.17
2023-04-06T05:26:21.455Z,59.28
2023-04-06T05:29:24.770Z,59.08
2023-04-06T05:32:28.522Z,59.06
2023-04-06T05:35:31.687Z,59.91
2023-04-06T05:38:34.827Z,58.75
2023-04-06T05:41:38.021Z,58.53
2023-04-06T05:44:42.243Z,59.46
2023-04-06T05:47:46.072Z,59.09
2023-04-06T05:50:51.475Z,56.10
2023-04-06T05:53:55.864Z,54.67
2023-04-06T05:56:58.372Z,55.00
2023-04-06T06:00:01.063Z,55.17
2023-04-06T06:03:05.406Z,54.30
2023-04-06T06:06:08.363Z,54.65
2023-04-06T06:09:11.670Z,55.32
2023-04-06T06:12:15.430Z,54.28
2023-04-06T06:15:17.715Z,54.05
2023-04-06T06:18:20.640Z,53.36
2023-04-06T06:21:23.500Z,52.95
2023-04-06T06:24:26.485Z,53.17
2023-04-06T06:27:28.725Z,52.63
2023-04-06T06:30:31.442Z,53.17
2023-04-06T06:33:34.588Z,51.31
2023-04-06T06:36:37.047Z,51.54
2023-04-06T06:39:41.211Z,51.38
2023-04-06T06:42:44.498Z,50.18
2023-04-06T06:45:49.466Z,50.93
2023-04-06T06:48:51.943Z,48.96
2023-04-06T06:51:54.108Z,50.41
2023-04-06T06:54:57.910Z,48.68
2023-04-06T06:58:00.185Z,46.71
2023-04-06T07:01:02.958Z,42.92
2023-04-06T07:04:05.842Z,45.85
2023-04-06T07:07:09.379Z,42.54
2023-04-06T07:10:11.995Z,41.25
2023-04-06T07:13:19.961Z,42.84
2023-04-06T07:16:22.268Z,43.44
2023-04-06T07:19:24.752Z,42.11
2023-04-06T07:22:27.046Z,41.59
2023-04-06T07:25:30.613Z,44.19
2023-04-06T07:28:32.843Z,44.14
2023-04-06T07:31:37.094Z,42.65
2023-04-06T07:34:40.468Z,40.82
2023-04-06T07:37:43.455Z,42.06
2023-04-06T07:40:45.688Z,42.58
2023-04-06T07:43:49.880Z,41.98
2023-04-06T07:46:52.409Z,41.20
2023-04-06T07:49:59.542Z,40.57
2023-04-06T07:53:01.986Z,41.60
2023-04-06T07:56:04.624Z,41.71
2023-04-06T07:59:06.898Z,39.79
2023-04-06T08:02:09.379Z,41.37
2023-04-06T08:05:12.104Z,42.41
2023-04-06T08:08:14.363Z,39.28
2023-04-06T08:11:16.808Z,41.03
2023-04-06T08:14:19.108Z,39.93
2023-04-06T08:17:21.677Z,41.09
2023-04-06T08:20:24.069Z,41.22
2023-04-06T08:23:26.529Z,42.22
2023-04-06T08:26:29.123Z,40.92
2023-04-06T08:29:31.864Z,41.72
2023-04-06T08:32:34.137Z,40.43
2023-04-06T08:35:36.650Z,41.49
2023-04-06T08:38:39.563Z,41.10
2023-04-06T08:41:45.178Z,40.65
2023-04-06T08:44:49.637Z,39.17
2023-04-06T08:47:55.730Z,39.39
2023-04-06T08:50:57.966Z,39.42
2023-04-06T08:54:01.071Z,38.17
2023-04-06T08:57:04.295Z,38.49
2023-04-06T09:00:10.493Z,39.45
2023-04-06T09:03:14.396Z,40.55
2023-04-06T09:06:17.335Z,40.18
2023-04-06T09:09:19.931Z,40.72
2023-04-06T09:12:28.310Z,38.97
2023-04-06T09:15:30.884Z,38.34
2023-04-06T09:18:34.851Z,38.60
2023-04-06T09:21:38.027Z,39.23
2023-04-06T09:24:42.649Z,37.08
2023-04-06T09:27:45.538Z,36.74
2023-04-06T09:30:51.577Z,36.48
2023-04-06T09:33:55.271Z,37.18
2023-04-06T09:36:57.922Z,36.11
2023-04-06T09:40:08.044Z,36.59
2023-04-06T09:43:11.023Z,34.54
2023-04-06T09:46:14.664Z,34.87
2023-04-06T09:49:18.146Z,36.24
2023-04-06T09:52:22.851Z,35.09
2023-04-06T09:55:36.121Z,34.41
